createdAt,value
2022-08-07T00:01:43.651Z,69.93
2022-08-07T00:04:09.547Z,70.96
2022-08-07T00:06:45.640Z,72.21
2022-08-07T00:09:21.345Z,72.42
2022-08-07T00:11:55.303Z,73.33
2022-08-07T00:14:30.223Z,75.54
2022-08-07T00:17:00.310Z,77.57
2022-08-07T00:20:00.259Z,77.28
2022-08-07T00:22:24.952Z,77.40
2022-08-07T00:25:04.505Z,75.72
2022-08-07T00:27:51.651Z,78.91
2022-08-07T00:30:26.800Z,78.47
2022-08-07T00:32:56.332Z,72.83
2022-08-07T00:35:23.168Z,77.04
2022-08-07T00:37:49.865Z,77.92
2022-08-07T00:40:36.574Z,76.21
2022-08-07T00:43:04.347Z,76.92
2022-08-07T00:45:36.780Z,76.63
2022-08-07T00:48:09.411Z,76.70
2022-08-07T00:50:46.161Z,78.58
2022-08-07T00:53:21.587Z,77.89
2022-08-07T00:56:03.003Z,75.51
2022-08-07T00:58:31.519Z,75.78
2022-08-07T01:00:58.837Z,77.59
2022-08-07T01:03:56.694Z,80.83
2022-08-07T01:06:12.971Z,81.06
2022-08-07T01:08:43.149Z,83.30
2022-08-07T01:12:04.901Z,83.55
2022-08-07T01:14:05.109Z,79.29
2022-08-07T01:16:32.062Z,83.63
2022-08-07T01:18:58.935Z,81.39
2022-08-07T01:21:27.544Z,83.32
2022-08-07T01:23:57.286Z,85.02
2022-08-07T01:26:26.114Z,83.60
2022-08-07T01:28:53.936Z,84.62
2022-08-07T01:31:21.906Z,81.34
2022-08-07T01:33:55.835Z,81.41
2022-08-07T01:36:33.460Z,82.34
2022-08-07T01:39:01.086Z,84.05
2022-08-07T01:41:28.030Z,85.36
2022-08-07T01:43:54.942Z,87.31
2022-08-07T01:46:21.619Z,87.68
2022-08-07T01:48:48.836Z,89.35
2022-08-07T01:52:04.241Z,88.04
2022-08-07T01:54:33.128Z,86.18
2022-08-07T01:57:27.565Z,84.98
2022-08-07T02:00:00.028Z,83.73
2022-08-07T02:03:11.947Z,82.37
2022-08-07T02:05:59.322Z,81.64
2022-08-07T02:08:29.825Z,81.72
2022-08-07T02:11:00.506Z,82.58
2022-08-07T02:13:58.011Z,81.66
2022-08-07T02:16:28.579Z,82.63
2022-08-07T02:20:05.552Z,82.76
2022-08-07T02:21:55.891Z,82.24
2022-08-07T02:24:25.024Z,80.31
2022-08-07T02:26:52.962Z,79.55
2022-08-07T02:29:21.892Z,79.40
2022-08-07T02:31:50.022Z,81.80
2022-08-07T02:34:18.907Z,82.49
2022-08-07T02:36:46.071Z,81.53
2022-08-07T02:39:17.194Z,81.51
2022-08-07T02:42:01.971Z,80.42
2022-08-07T02:44:34.371Z,80.28
2022-08-07T02:47:03.502Z,81.64
2022-08-07T02:49:57.628Z,80.54
2022-08-07T02:52:31.990Z,80.61
2022-08-07T02:55:03.701Z,78.47
2022-08-07T02:57:34.936Z,79.46
2022-08-07T03:00:05.082Z,78.53
2022-08-07T03:02:54.111Z,79.84
2022-08-07T03:05:23.136Z,78.71
2022-08-07T03:08:07.683Z,79.42
2022-08-07T03:10:46.155Z,77.47
2022-08-07T03:13:19.781Z,75.87
2022-08-07T03:15:56.413Z,74.14
2022-08-07T03:18:34.844Z,73.06
2022-08-07T03:21:04.984Z,72.20
2022-08-07T03:24:19.560Z,73.28
2022-08-07T03:26:30.014Z,73.78
2022-08-07T03:28:58.546Z,73.44
2022-08-07T03:31:42.271Z,72.74
2022-08-07T03:34:18.499Z,72.62
2022-08-07T03:36:53.003Z,72.40
2022-08-07T03:39:46.394Z,72.23
2022-08-07T03:42:08.488Z,72.92
2022-08-07T03:44:37.647Z,72.82
2022-08-07T03:47:13.967Z,72.49
2022-08-07T03:49:48.022Z,72.31
2022-08-07T03:52:26.631Z,72.09
2022-08-07T03:55:06.095Z,72.36
2022-08-07T03:58:34.612Z,72.51
2022-08-07T04:00:30.568Z,71.60
2022-08-07T04:03:03.940Z,71.39
2022-08-07T04:05:39.742Z,71.49
2022-08-07T04:08:16.331Z,71.69
2022-08-07T04:10:53.912Z,73.41
2022-08-07T04:14:09.545Z,75.43
2022-08-07T04:16:31.597Z,76.39
2022-08-07T04:19:01.779Z,77.38
2022-08-07T04:21:31.959Z,77.56
2022-08-07T04:24:05.793Z,75.83
2022-08-07T04:26:34.741Z,75.78
2022-08-07T04:29:03.048Z,74.65
2022-08-07T04:31:39.145Z,76.33
2022-08-07T04:34:24.193Z,77.45
2022-08-07T04:37:00.829Z,78.51
2022-08-07T04:39:29.312Z,77.67
2022-08-07T04:42:04.105Z,76.29
2022-08-07T04:44:30.963Z,76.98
2022-08-07T04:47:23.607Z,77.46
2022-08-07T04:50:10.989Z,78.35
2022-08-07T04:52:53.625Z,77.81
2022-08-07T04:58:13.160Z,77.52
2022-08-07T04:59:17.769Z,77.56
2022-08-07T05:01:45.211Z,76.14
2022-08-07T05:04:18.613Z,75.34
2022-08-07T05:06:56.526Z,74.53
2022-08-07T05:09:45.335Z,74.94
2022-08-07T05:12:27.268Z,73.71
2022-08-07T05:15:21.696Z,73.69
2022-08-07T05:17:58.441Z,73.11
2022-08-07T05:20:35.077Z,72.90
2022-08-07T05:23:15.862Z,73.40
2022-08-07T05:26:10.688Z,74.03
2022-08-07T05:28:33.389Z,76.69
2022-08-07T05:31:01.528Z,78.03
2022-08-07T05:33:31.874Z,81.72
2022-08-07T05:36:04.555Z,85.88
2022-08-07T05:38:59.411Z,88.99
2022-08-07T05:41:21.896Z,89.01
2022-08-07T05:44:09.004Z,91.90
2022-08-07T05:46:40.249Z,90.39
2022-08-07T05:49:12.377Z,91.95
2022-08-07T05:51:41.291Z,92.20
2022-08-07T05:54:29.792Z,93.52
2022-08-07T05:56:57.227Z,93.71
2022-08-07T05:59:27.474Z,96.54
2022-08-07T06:01:57.417Z,96.46
2022-08-07T06:04:30.028Z,96.19
2022-08-07T06:07:03.735Z,95.27
2022-08-07T06:10:04.369Z,96.26
2022-08-07T06:12:17.738Z,96.02
2022-08-07T06:14:50.121Z,93.00
2022-08-07T06:17:19.313Z,94.41
2022-08-07T06:20:03.281Z,93.87
2022-08-07T06:22:38.724Z,95.78
2022-08-07T06:25:10.008Z,95.78
2022-08-07T06:28:00.582Z,95.53
2022-08-07T06:30:35.431Z,96.92
2022-08-07T06:33:03.840Z,97.46
2022-08-07T06:35:45.893Z,98.04
2022-08-07T06:38:20.525Z,98.55
2022-08-07T06:40:50.189Z,96.69
2022-08-07T06:43:21.419Z,95.18
2022-08-07T06:45:49.192Z,95.18
2022-08-07T06:48:16.204Z,94.80
2022-08-07T06:50:52.800Z,96.83
2022-08-07T06:55:27.092Z,95.48
2022-08-07T06:56:15.499Z,99.31
2022-08-07T07:00:13.502Z,99.83
2022-08-07T07:01:42.054Z,99.25
2022-08-07T07:04:28.488Z,98.62
2022-08-07T07:07:00.972Z,98.08
2022-08-07T07:09:31.222Z,96.89
2022-08-07T07:12:19.596Z,97.19
2022-08-07T07:15:00.376Z,94.82
2022-08-07T07:17:50.500Z,94.79
2022-08-07T07:20:28.367Z,95.32
2022-08-07T07:24:10.106Z,98.41
2022-08-07T07:29:40.185Z,97.54
2022-08-07T07:31:51.489Z,96.16
2022-08-07T07:34:22.378Z,94.52
2022-08-07T07:37:14.489Z,96.52
2022-08-07T07:39:54.477Z,96.69
2022-08-07T07:42:32.617Z,95.13
2022-08-07T07:45:02.053Z,94.93
2022-08-07T07:47:29.671Z,95.18
2022-08-07T07:50:35.275Z,94.82
2022-08-07T07:52:46.915Z,93.10
2022-08-07T07:55:15.580Z,96.42
2022-08-07T07:57:52.104Z,94.68
2022-08-07T08:00:31.254Z,95.81
2022-08-07T08:04:06.343Z,95.01
2022-08-07T08:06:13.210Z,93.06
2022-08-07T08:08:42.120Z,91.90
2022-08-07T08:11:16.073Z,91.25
2022-08-07T08:13:53.208Z,89.66
2022-08-07T08:16:26.251Z,87.90
2022-08-07T08:18:58.269Z,89.71
2022-08-07T08:21:58.599Z,87.36
2022-08-07T08:25:04.433Z,87.83
2022-08-07T08:27:44.025Z,88.70
2022-08-07T08:30:25.565Z,87.95
2022-08-07T08:33:01.656Z,89.07
2022-08-07T08:35:39.341Z,90.54
2022-08-07T08:38:16.355Z,88.95
2022-08-07T08:40:49.608Z,89.02
2022-08-07T08:43:42.943Z,89.43
2022-08-07T08:46:41.191Z,90.21
2022-08-07T08:49:32.910Z,90.10
2022-08-07T08:52:40.643Z,87.23
2022-08-07T08:55:58.351Z,90.01
2022-08-07T08:58:35.783Z,89.71
2022-08-07T09:01:18.316Z,89.14
2022-08-07T09:03:55.898Z,91.07
2022-08-07T09:06:38.204Z,88.27
2022-08-07T09:09:23.703Z,87.68
2022-08-07T09:12:32.264Z,88.41
2022-08-07T09:16:21.523Z,87.26
2022-08-07T09:18:47.286Z,85.80
2022-08-07T09:22:10.110Z,86.12
2022-08-07T09:24:58.844Z,88.77
2022-08-07T09:27:59.590Z,90.93
2022-08-07T09:30:37.293Z,93.85
2022-08-07T09:33:16.868Z,93.24
2022-08-07T09:36:09.651Z,92.97
2022-08-07T09:39:27.350Z,93.60
2022-08-07T09:42:17.020Z,93.87
2022-08-07T09:47:23.554Z,93.41
2022-08-07T09:48:15.124Z,92.79
2022-08-07T09:52:15.459Z,92.63
2022-08-07T09:54:40.240Z,91.92
2022-08-07T09:57:21.809Z,88.29
2022-08-07T10:00:14.432Z,84.85
2022-08-07T10:02:55.719Z,83.89
2022-08-07T10:06:12.059Z,83.35
2022-08-07T10:09:23.833Z,82.09
2022-08-07T10:12:21.702Z,80.62
2022-08-07T10:15:05.349Z,80.08
2022-08-07T10:18:01.103Z,79.68
2022-08-07T10:20:39.080Z,79.95
2022-08-07T10:23:16.984Z,77.99
2022-08-07T10:26:24.717Z,74.88
2022-08-07T10:28:59.114Z,77.10
2022-08-07T10:31:42.186Z,76.92
2022-08-07T10:34:32.319Z,77.42
2022-08-07T10:37:14.668Z,73.81
2022-08-07T10:40:09.381Z,73.79
2022-08-07T10:43:00.481Z,73.94
2022-08-07T10:45:45.084Z,71.75
2022-08-07T10:48:51.190Z,68.09
2022-08-07T10:51:39.034Z,68.82
2022-08-07T10:54:40.959Z,67.19
2022-08-07T10:57:34.537Z,69.12
2022-08-07T11:00:09.674Z,71.43
2022-08-07T11:03:12.737Z,71.13
2022-08-07T11:05:58.546Z,69.30
2022-08-07T11:08:43.422Z,69.59
2022-08-07T11:11:30.930Z,67.05
2022-08-07T11:14:46.244Z,66.27
2022-08-07T11:17:13.520Z,66.31
2022-08-07T11:19:55.853Z,66.29
2022-08-07T11:22:32.487Z,65.93
2022-08-07T11:25:18.504Z,64.84
2022-08-07T11:28:03.208Z,65.00
2022-08-07T11:31:08.895Z,62.07
2022-08-07T11:34:10.953Z,63.71
2022-08-07T11:36:56.287Z,65.53
2022-08-07T11:39:59.894Z,64.07
2022-08-07T11:42:49.060Z,63.89
2022-08-07T11:45:36.091Z,62.45
2022-08-07T11:48:30.032Z,60.04
2022-08-07T11:51:02.843Z,59.73
2022-08-07T11:53:43.228Z,64.11
2022-08-07T11:56:38.106Z,60.30
2022-08-07T12:00:11.796Z,55.93
2022-08-07T12:02:32.096Z,56.46
2022-08-07T12:05:15.358Z,58.13
2022-08-07T12:08:25.815Z,54.57
2022-08-07T12:11:20.850Z,54.12
2022-08-07T12:14:04.216Z,51.32
2022-08-07T12:16:55.969Z,51.75
2022-08-07T12:20:03.321Z,52.47
2022-08-07T12:23:10.132Z,53.88
2022-08-07T12:26:21.708Z,51.26
2022-08-07T12:28:56.710Z,51.75
2022-08-07T12:32:02.503Z,49.36
2022-08-07T12:34:30.335Z,49.95
2022-08-07T12:36:58.805Z,53.40
2022-08-07T12:39:44.192Z,50.09
2022-08-07T12:42:27.160Z,50.61
2022-08-07T12:44:58.622Z,49.74
2022-08-07T12:47:44.005Z,48.68
2022-08-07T12:50:39.126Z,49.14
2022-08-07T12:54:02.895Z,49.10
2022-08-07T12:56:39.514Z,47.81
2022-08-07T12:59:08.315Z,48.53
2022-08-07T13:02:02.874Z,49.04
2022-08-07T13:05:01.498Z,46.73
2022-08-07T13:08:14.442Z,47.69
2022-08-07T13:10:52.658Z,48.22
2022-08-07T13:13:46.809Z,47.55
2022-08-07T13:16:25.095Z,47.73
2022-08-07T13:19:21.910Z,47.96
2022-08-07T13:22:20.044Z,47.87
2022-08-07T13:25:00.501Z,50.63
2022-08-07T13:27:33.373Z,50.41
2022-08-07T13:30:19.654Z,46.52
2022-08-07T13:34:14.495Z,45.89
2022-08-07T13:36:25.893Z,46.66
2022-08-07T13:40:33.117Z,48.48
2022-08-07T13:42:21.720Z,49.43
2022-08-07T13:45:11.448Z,46.59
2022-08-07T13:48:06.171Z,47.79
2022-08-07T13:50:44.040Z,44.78
2022-08-07T13:53:21.919Z,46.62
2022-08-07T13:55:54.605Z,46.93
2022-08-07T13:58:56.073Z,48.28
2022-08-07T14:01:26.334Z,49.17
2022-08-07T14:04:06.790Z,48.27
2022-08-07T14:06:41.822Z,45.17
2022-08-07T14:09:17.238Z,45.50
2022-08-07T14:12:07.331Z,46.02
2022-08-07T14:14:51.391Z,46.67
2022-08-07T14:18:12.980Z,48.23
2022-08-07T14:20:42.383Z,45.85
2022-08-07T14:23:58.975Z,43.85
2022-08-07T14:26:28.106Z,45.59
2022-08-07T14:29:06.028Z,44.24
2022-08-07T14:31:42.927Z,45.20
2022-08-07T14:34:29.259Z,46.22
2022-08-07T14:36:57.832Z,45.98
2022-08-07T14:40:15.466Z,45.37
2022-08-07T14:42:18.862Z,47.39
2022-08-07T14:44:52.653Z,45.72
2022-08-07T14:47:21.042Z,47.11
2022-08-07T14:49:58.396Z,45.45
2022-08-07T14:52:38.528Z,46.35
2022-08-07T14:55:06.834Z,47.63
2022-08-07T14:57:58.084Z,47.27
2022-08-07T15:00:29.806Z,42.81
2022-08-07T15:02:59.952Z,44.21
2022-08-07T15:05:30.330Z,43.40
2022-08-07T15:08:00.120Z,42.75
2022-08-07T15:10:29.850Z,43.16
2022-08-07T15:13:00.884Z,43.56
2022-08-07T15:15:52.397Z,42.49
2022-08-07T15:25:16.169Z,41.13
2022-08-07T15:27:23.693Z,41.93
2022-08-07T15:32:51.081Z,42.33
2022-08-07T15:36:01.970Z,42.36
2022-08-07T15:38:30.754Z,42.97
2022-08-07T15:41:24.214Z,41.23
2022-08-07T15:44:21.282Z,42.52
2022-08-07T15:47:08.948Z,43.23
2022-08-07T15:52:35.473Z,43.78
2022-08-07T15:55:08.875Z,43.43
2022-08-07T15:57:48.367Z,43.30
2022-08-07T16:00:32.004Z,44.11
2022-08-07T16:03:21.835Z,44.17
2022-08-07T16:05:58.943Z,43.70
2022-08-07T16:08:33.399Z,43.98
2022-08-07T16:11:26.781Z,43.13
2022-08-07T16:14:26.723Z,44.10
2022-08-07T16:18:02.215Z,44.62
2022-08-07T16:20:33.406Z,45.70
2022-08-07T16:23:53.005Z,44.47
2022-08-07T16:27:00.664Z,45.28
2022-08-07T16:30:11.880Z,45.72
2022-08-07T16:32:54.131Z,46.17
2022-08-07T16:35:52.069Z,46.77
2022-08-07T16:39:01.167Z,48.18
2022-08-07T16:41:54.417Z,48.42
2022-08-07T16:45:13.996Z,47.80
2022-08-07T16:47:58.682Z,48.75
2022-08-07T16:51:20.589Z,48.52
2022-08-07T16:54:06.140Z,49.28
2022-08-07T16:56:53.619Z,49.76
2022-08-07T16:59:46.377Z,49.02
2022-08-07T17:02:53.025Z,47.62
2022-08-07T17:06:19.247Z,48.49
2022-08-07T17:08:09.038Z,48.43
2022-08-07T17:10:54.637Z,47.89
2022-08-07T17:13:41.408Z,48.41
2022-08-07T17:16:29.292Z,48.50
2022-08-07T17:20:00.371Z,48.79
2022-08-07T17:22:19.266Z,48.58
2022-08-07T17:25:52.325Z,46.93
2022-08-07T17:28:31.459Z,45.42
2022-08-07T17:31:20.946Z,45.56
2022-08-07T17:34:15.601Z,45.88
2022-08-07T17:37:08.958Z,45.84
2022-08-07T17:40:05.565Z,45.60
2022-08-07T17:42:59.214Z,45.87
2022-08-07T17:45:37.529Z,46.45
2022-08-07T17:48:15.696Z,46.57
2022-08-07T17:51:16.286Z,47.48
2022-08-07T17:54:11.535Z,48.10
2022-08-07T17:56:49.759Z,47.96
2022-08-07T17:59:39.019Z,48.24
2022-08-07T18:02:15.438Z,48.38
2022-08-07T18:04:53.482Z,48.08
2022-08-07T18:07:35.479Z,48.51
2022-08-07T18:10:28.627Z,48.74
2022-08-07T18:13:23.093Z,49.29
2022-08-07T18:16:04.654Z,49.62
2022-08-07T18:21:04.248Z,50.41
2022-08-07T18:21:55.130Z,50.16
2022-08-07T18:24:34.457Z,50.40
2022-08-07T18:27:17.395Z,50.71
2022-08-07T18:30:07.864Z,50.91
2022-08-07T18:32:47.436Z,52.38
2022-08-07T18:35:51.789Z,52.31
2022-08-07T18:38:57.383Z,52.73
2022-08-07T18:41:54.220Z,52.74
2022-08-07T18:45:44.168Z,53.96
2022-08-07T18:47:50.609Z,52.98
2022-08-07T18:50:47.026Z,53.45
2022-08-07T18:53:16.617Z,52.54
2022-08-07T18:56:01.872Z,53.38
2022-08-07T18:58:43.181Z,54.08
2022-08-07T19:02:19.350Z,54.21
2022-08-07T19:05:09.649Z,55.06
2022-08-07T19:08:31.947Z,56.91
2022-08-07T19:11:35.687Z,56.95
2022-08-07T19:14:11.630Z,58.61
2022-08-07T19:17:06.869Z,57.42
2022-08-07T19:19:55.680Z,57.02
2022-08-07T19:22:30.588Z,57.09
2022-08-07T19:24:58.474Z,57.79
2022-08-07T19:28:57.314Z,58.11
2022-08-07T19:31:03.258Z,60.46
2022-08-07T19:33:13.266Z,60.88
2022-08-07T19:35:46.768Z,60.26
2022-08-07T19:38:17.679Z,59.27
2022-08-07T19:40:49.337Z,60.06
2022-08-07T19:43:50.097Z,63.49
2022-08-07T19:46:29.828Z,62.27
2022-08-07T19:49:11.898Z,61.84
2022-08-07T19:51:51.809Z,63.98
2022-08-07T19:54:32.313Z,63.11
2022-08-07T19:58:04.472Z,66.54
2022-08-07T20:00:10.235Z,64.57
2022-08-07T20:02:52.206Z,66.30
2022-08-07T20:05:28.108Z,68.04
2022-08-07T20:08:01.988Z,67.73
2022-08-07T20:10:38.116Z,69.38
2022-08-07T20:13:26.910Z,67.25
2022-08-07T20:16:00.550Z,68.42
2022-08-07T20:18:32.607Z,65.92
2022-08-07T20:21:02.248Z,69.56
2022-08-07T20:23:43.165Z,66.50
2022-08-07T20:26:15.341Z,70.00
2022-08-07T20:28:59.206Z,72.63
2022-08-07T20:31:28.819Z,73.18
2022-08-07T20:33:58.315Z,73.68
2022-08-07T20:36:28.353Z,73.40
2022-08-07T20:39:00.902Z,71.91
2022-08-07T20:41:50.807Z,73.56
2022-08-07T20:44:20.454Z,72.59
2022-08-07T20:47:05.786Z,71.24
2022-08-07T20:50:00.721Z,71.60
2022-08-07T20:52:51.266Z,73.85
2022-08-07T20:55:24.902Z,73.94
2022-08-07T20:58:03.315Z,71.69
2022-08-07T21:00:42.586Z,72.77
2022-08-07T21:03:15.584Z,71.49
2022-08-07T21:05:54.796Z,73.36
2022-08-07T21:08:37.559Z,71.68
2022-08-07T21:11:10.686Z,69.91
2022-08-07T21:13:43.899Z,70.50
2022-08-07T21:16:33.344Z,71.34
2022-08-07T21:19:01.161Z,70.51
2022-08-07T21:21:33.288Z,73.43
2022-08-07T21:24:28.647Z,73.25
2022-08-07T21:27:39.803Z,74.38
2022-08-07T21:30:16.960Z,73.18
2022-08-07T21:33:02.164Z,73.58
2022-08-07T21:36:03.843Z,73.92
2022-08-07T21:38:49.803Z,73.65
2022-08-07T21:41:37.951Z,73.54
2022-08-07T21:44:28.343Z,75.40
2022-08-07T21:47:07.493Z,73.90
2022-08-07T21:50:01.913Z,75.13
2022-08-07T21:52:38.572Z,70.81
2022-08-07T21:55:42.685Z,71.94
2022-08-07T21:58:32.151Z,73.73
2022-08-07T22:01:16.491Z,74.70
2022-08-07T22:03:49.288Z,71.73
2022-08-07T22:06:30.457Z,73.58
2022-08-07T22:09:07.996Z,74.97
2022-08-07T22:11:53.317Z,76.13
2022-08-07T22:14:37.517Z,73.40
2022-08-07T22:17:16.261Z,74.73
2022-08-07T22:20:07.448Z,73.27
2022-08-07T22:22:44.939Z,72.66
2022-08-07T22:25:36.316Z,73.02
2022-08-07T22:28:31.279Z,71.57
2022-08-07T22:31:06.883Z,72.85
2022-08-07T22:33:56.608Z,72.46
2022-08-07T22:36:48.653Z,71.32
2022-08-07T22:39:35.327Z,69.53
2022-08-07T22:42:33.769Z,69.39
2022-08-07T22:45:04.083Z,68.57
2022-08-07T22:48:31.659Z,67.44
2022-08-07T22:51:12.440Z,66.26
2022-08-07T22:54:15.038Z,65.29
2022-08-07T22:57:17.097Z,64.43
2022-08-07T22:59:56.666Z,63.85
2022-08-07T23:02:41.905Z,65.23
2022-08-07T23:06:09.991Z,66.07
2022-08-07T23:08:54.574Z,66.30
2022-08-07T23:11:25.339Z,65.46
2022-08-07T23:14:20.725Z,65.50
2022-08-07T23:17:26.431Z,65.00
2022-08-07T23:20:52.392Z,63.92
2022-08-07T23:24:04.237Z,63.25
2022-08-07T23:26:50.046Z,62.12
2022-08-07T23:29:43.745Z,62.02
2022-08-07T23:34:19.954Z,61.61
2022-08-07T23:35:23.522Z,62.43
2022-08-07T23:38:36.948Z,62.89
2022-08-07T23:41:33.639Z,62.89
2022-08-07T23:44:03.414Z,62.25
2022-08-07T23:46:56.448Z,62.40
2022-08-07T23:49:57.100Z,62.60
2022-08-07T23:53:05.924Z,62.28
2022-08-07T23:55:57.711Z,61.18
2022-08-07T23:58:46.374Z,60.83
